Bergerac-Roumanière Airport

Airport
ICAO code: 
LFBE
IATA Code: 
EGC
Summary
ICAO Region: 
EUR
Territory: 
Location: 
, Aquitaine
Serving: 
Bergerac
Elevation: 
171 ft
Coordinates: 
Aerial View: 
44° 49' 31.004" N, 0° 31' 7" E
Metar
Observation
LFBE 192330Z AUTO 11001KT 7000 BKN038/// BKN050/// OVC066/// ///TCU 03/03 Q1032
Station
Bergerac
Date/Time
2022-01-19 23:30:00
Wind direction
110°
Wind speed
01 kts
Lowest cloud amount
broken clouds
Temperature
3°C
Dew point
3°C
Humidity
100%
QNH
1032 hPa
Weather condition
n/a

Runways

Designator Length Width Surface Rops
10/28 2205 45 ASP Yes/Yes
Airport map: 
Aerial View: 

Accidents and Serious Incidents at or in the vicinity of LFBE

SKYbrary Partners:

Safety knowledge contributed by: